In Rescue
 
Open Full Screen Window  High Contrast Mode
Wind Gusting 18 knots
11
April 20, 2024 9:22 AM EDT
Weather Information
Wind Direction
  280 °
Wind Speed
  11 kt (13 mph)
Wind Gust
  18 kt (21 mph)
Altimeter
29.96 in
Visibility
10 SM
Temperature
03° C
37° F
Dewpoint
-03° C
27° F
Humidity
65%
Sky Condition
Overcast @ 4,100 ft
Scattered @ 3,300 ft
Scattered @ 2,600 ft
VFR

METAR KERY 201322Z AUTO 28011G18KT 10SM SCT026 SCT033 OVC041 03/M03 A2996 RMK AO2 T00251026

FAA Disclaimer: The data displayed is for advisory purposes only and is not to be used for flight planning or operations.